Accueil
METAR-TAF:

METAR-TAF

Aéroports :

Base aérienne 702 Avord

Avord, France

latitude: 47-03-12N, longitude: 002-37-57E, altitude: 177 m

Observation

Le bulletin a été fait il y a 39 minutes, à 08:00 UTC
Vent 13 kt de nord/nord-est
Température 8°C
Humidité 61%
Pression 1023 hPa
Visibilité 10 km ou plus
Quelques nuages à une hauteur de 3400 ft
Nuages fragmentés à une hauteur de 6200 ft

METAR: LFOA 170800Z AUTO 03013KT 9999 FEW034 BKN062 08/01 Q1023

Heure: 10:39 (08:39 UTC)

Prévision

Le bulletin a été fait il y a 39 minutes, à 08:00 UTC
Prévision valable du 16 à 09 UTC au 17 à 09 UTC
Vent 12 kt de nord-est
Visibilité 10 km ou plus
pas de nuages en-dessous de 1500 mètres et pas de cumulonimbus.
Temporairement
du 16 à 09 UTC au 16 à 19 UTC
Vent 15 kt de nord/nord-est avec des rafales jusqu'à 25 kt

TAF: LFOA 160800Z 1609/1709 05012KT CAVOK TX11/1614Z TN02/1705Z TEMPO 1609/1619 03015G25KT

Observations et prévisions météorologiques de plus de 4000 aéroports (messages METAR et TAF).

Les stations disponibles sont représentées par des disques jaunes et rouges sur la carte.

Passer la souris dessus pour voir le nom de la station.

Cliquer dessus pour voir les observations et prévisions météorologiques.

Pour changer de carte: cliquez sur les boutons verts avec une croix noire pour zoomer, sur le bouton vert avec un tiret pour effectuer un zoom arrière, ou sur les flèches vertes pour les cartes adjacentes.


METAR-TAF: